Times Square, Washington
Current Conditions -  °F | °C
As of 3:55 PM on Wednesday 22 Oct 2014 (Local Time) from KBFI Reporting Station
Light Rain Light Rain  
Wind Chill: 59°   Ceiling: 2300
Heat Index: 59°   Visibility: 5mi
Dew Point: 54°   Wind: 6mph
Humidity: 82%   Direction: 120°ESE
Pressure: 29.64"   Gusts: NA
Location:  47.6115°N, 122.334°W
Report Text: KBFI 222255Z 12005KT 5SM -RA BKN023 BKN075 OVC090 15/12 A2964 RMK AO2 P0000
Loading
Personal Weather Stations






























Interactive Weather Map
Tropical Storm Tracking
New forecast layout! Learn more

10-Day Weather Forecast

Advertisements
Track Severe Weather on mobile